createdAt,value
2018-01-24T05:09:32.863Z,96.46
2018-01-24T05:12:20.151Z,96.65
2018-01-24T05:15:00.651Z,96.76
2018-01-24T06:31:31.208Z,94.77
2018-01-24T07:19:01.706Z,93.27
2018-01-24T07:58:13.705Z,92.15
2018-01-24T09:40:16.645Z,89.11
2018-01-24T09:42:44.954Z,88.72
2018-01-24T10:08:58.310Z,87.69
2018-01-24T10:27:07.728Z,86.48
2018-01-24T10:32:20.902Z,85.70
2018-01-24T11:33:50.162Z,84.74
2018-01-24T11:39:09.974Z,84.53
2018-01-24T11:41:43.097Z,84.67
2018-01-24T11:44:21.039Z,84.63
2018-01-24T11:46:53.903Z,84.41
2018-01-24T11:52:02.511Z,84.36
2018-01-24T11:54:33.311Z,84.79
2018-01-24T11:57:07.636Z,84.63
2018-01-24T11:59:40.452Z,84.59
2018-01-24T12:02:15.115Z,84.55
2018-01-24T12:26:13.938Z,83.75
2018-01-24T12:49:32.240Z,83.65
2018-01-24T12:51:59.795Z,83.10
2018-01-24T12:54:28.675Z,82.85
2018-01-24T12:56:56.998Z,82.49
2018-01-24T12:59:24.086Z,82.71
2018-01-24T13:01:51.367Z,82.97
2018-01-24T13:04:20.023Z,83.36
2018-01-24T13:06:48.198Z,82.79
2018-01-24T13:09:20.757Z,82.59
2018-01-24T13:11:48.325Z,82.50
2018-01-24T13:14:32.547Z,82.33
2018-01-24T13:38:12.682Z,82.13
2018-01-24T13:40:42.350Z,82.00
2018-01-24T13:43:10.253Z,81.69
2018-01-24T13:45:39.599Z,81.77
2018-01-24T13:48:09.894Z,81.38
2018-01-24T13:50:37.737Z,81.80
2018-01-24T13:53:05.414Z,81.36
2018-01-24T13:55:34.205Z,82.30
2018-01-24T13:58:04.121Z,81.60
2018-01-24T14:00:31.240Z,81.25
2018-01-24T14:02:59.159Z,81.69
2018-01-24T14:05:27.385Z,82.10
2018-01-24T14:07:55.876Z,81.24
2018-01-24T14:34:00.947Z,81.44
2018-01-24T14:36:37.631Z,81.08
2018-01-24T14:41:41.510Z,80.92
2018-01-24T14:46:47.215Z,80.55
2018-01-24T14:49:18.059Z,80.45
2018-01-24T14:51:46.218Z,80.09
2018-01-24T15:28:41.627Z,79.63
2018-01-24T15:31:11.872Z,79.96
2018-01-24T15:33:42.827Z,79.92
2018-01-24T15:56:56.555Z,80.24
2018-01-24T15:59:24.759Z,80.12
2018-01-24T16:01:54.008Z,79.90
2018-01-24T16:04:22.013Z,79.94
2018-01-24T16:06:49.972Z,80.01
2018-01-24T16:09:17.506Z,79.89
2018-01-24T16:11:45.276Z,79.82
2018-01-24T16:14:13.695Z,80.03
2018-01-24T16:16:41.170Z,80.39
2018-01-24T16:19:10.009Z,80.22
2018-01-24T16:21:40.341Z,80.10
2018-01-24T16:24:12.698Z,80.06
2018-01-24T16:26:42.643Z,80.17
2018-01-24T16:29:10.152Z,80.04
2018-01-24T16:31:37.483Z,80.14
2018-01-24T16:34:04.883Z,80.19
2018-01-24T16:36:32.039Z,79.98
2018-01-24T16:39:02.098Z,80.04
2018-01-24T16:41:39.759Z,79.93
2018-01-24T16:44:08.909Z,80.02
2018-01-24T17:07:49.460Z,79.92
2018-01-24T17:10:19.109Z,79.96
2018-01-24T17:33:21.580Z,78.91
2018-01-24T17:35:48.702Z,78.97
2018-01-24T17:38:22.342Z,79.22
2018-01-24T17:40:56.535Z,78.91
2018-01-24T17:43:24.934Z,78.71
2018-01-24T17:45:57.186Z,78.96
2018-01-24T17:48:24.946Z,77.54
2018-01-24T17:51:01.147Z,77.02
2018-01-24T17:53:29.831Z,76.94
2018-01-24T17:56:00.352Z,76.69
2018-01-24T17:58:28.273Z,76.01
2018-01-24T18:00:57.148Z,75.67
2018-01-24T18:03:24.390Z,75.14
2018-01-24T18:26:55.427Z,75.04
2018-01-24T18:29:23.529Z,75.06
2018-01-24T18:31:51.016Z,74.94
2018-01-24T18:34:50.017Z,74.89
2018-01-24T18:37:18.485Z,75.17
2018-01-24T18:39:45.589Z,74.83
2018-01-24T18:42:16.398Z,74.36
2018-01-24T18:44:43.595Z,74.51
2018-01-24T18:47:13.121Z,74.21
2018-01-24T18:52:49.772Z,73.45
2018-01-24T18:55:17.007Z,73.24
2018-01-24T18:57:48.178Z,73.49
2018-01-24T19:00:19.735Z,73.30
2018-01-24T19:23:43.586Z,74.53
2018-01-24T19:26:11.731Z,74.85
2018-01-24T19:28:55.535Z,74.76
2018-01-24T19:31:24.030Z,74.23
2018-01-24T20:15:56.201Z,74.64
2018-01-24T20:36:36.626Z,74.45
2018-01-24T20:39:44.088Z,74.39
2018-01-24T21:00:15.392Z,74.04
2018-01-24T21:02:53.203Z,73.90
2018-01-24T21:05:29.096Z,73.68
2018-01-24T21:07:57.538Z,73.73
2018-01-24T21:10:45.544Z,73.50
2018-01-24T21:13:13.601Z,73.74
2018-01-24T21:15:42.776Z,73.92
2018-01-24T21:18:27.123Z,73.97
2018-01-24T21:23:45.610Z,73.96
2018-01-24T21:26:15.609Z,74.10
2018-01-24T21:29:02.849Z,74.07
2018-01-24T21:31:48.776Z,74.50
2018-01-24T21:34:34.532Z,74.26
2018-01-24T21:37:04.323Z,74.37
2018-01-24T21:39:32.119Z,74.66
2018-01-24T21:42:01.648Z,74.27
2018-01-24T21:44:32.949Z,74.31
2018-01-24T21:47:04.239Z,74.89
2018-01-24T21:49:55.985Z,74.65
2018-01-24T21:52:23.449Z,74.74
2018-01-24T21:54:55.279Z,74.70
2018-01-24T21:57:38.955Z,74.51
2018-01-24T22:00:07.616Z,74.62
2018-01-24T22:02:40.732Z,74.71
2018-01-24T22:05:19.392Z,74.85
2018-01-24T22:07:51.228Z,74.65
2018-01-24T22:10:25.871Z,74.66
2018-01-24T22:12:59.669Z,74.70
2018-01-24T22:42:23.984Z,76.33
2018-01-24T22:44:51.233Z,76.65
2018-01-24T22:47:18.257Z,77.32
2018-01-24T22:49:45.452Z,77.90
2018-01-24T22:52:13.684Z,78.41
2018-01-24T22:54:40.830Z,78.88
2018-01-24T22:57:26.027Z,79.45
2018-01-24T22:59:57.196Z,79.80
2018-01-24T23:02:25.778Z,80.39
2018-01-24T23:25:35.117Z,80.63
2018-01-24T23:28:02.711Z,80.39
2018-01-24T23:30:31.015Z,80.52
2018-01-24T23:33:02.494Z,80.87
2018-01-24T23:35:32.128Z,80.80
2018-01-24T23:38:05.116Z,80.89
2018-01-24T23:40:32.271Z,81.00
2018-01-24T23:43:02.641Z,81.16
2018-01-24T23:45:42.231Z,81.33
2018-01-24T23:48:13.819Z,81.46
2018-01-24T23:50:41.730Z,81.29
2018-01-24T23:53:09.620Z,81.46
2018-01-24T23:55:37.054Z,81.97
2018-01-24T23:58:04.306Z,82.12
